createdAt,value
2022-12-19T00:01:33.041Z,3.05
2022-12-19T00:04:01.528Z,3.63
2022-12-19T00:06:28.647Z,3.45
2022-12-19T00:08:55.861Z,5.20
2022-12-19T00:11:23.233Z,2.50
2022-12-19T00:13:50.027Z,4.63
2022-12-19T00:16:19.262Z,2.22
2022-12-19T00:18:46.472Z,2.15
2022-12-19T00:21:18.037Z,1.60
2022-12-19T00:23:44.838Z,1.45
2022-12-19T00:26:18.588Z,0.85
2022-12-19T00:28:47.108Z,0.52
2022-12-19T00:31:14.652Z,2.58
2022-12-19T00:33:43.323Z,2.65
2022-12-19T00:36:12.515Z,3.67
2022-12-19T00:38:39.368Z,3.17
2022-12-19T00:41:09.091Z,0.88
2022-12-19T00:43:35.804Z,3.53
2022-12-19T00:46:06.492Z,2.10
2022-12-19T00:48:33.616Z,2.15
2022-12-19T00:51:04.209Z,3.40
2022-12-19T00:53:33.754Z,0.67
2022-12-19T00:56:04.316Z,4.15
2022-12-19T00:58:34.485Z,2.53
2022-12-19T01:01:12.951Z,1.45
2022-12-19T01:03:49.309Z,1.58
2022-12-19T01:06:25.232Z,2.80
2022-12-19T01:08:51.915Z,3.53
2022-12-19T01:11:38.604Z,0.93
2022-12-19T01:14:05.658Z,3.15
2022-12-19T01:16:32.393Z,3.67
2022-12-19T01:18:59.277Z,3.88
2022-12-19T01:21:28.554Z,7.50
2022-12-19T01:23:55.283Z,5.55
2022-12-19T01:26:22.027Z,1.33
2022-12-19T01:28:48.697Z,1.92
2022-12-19T01:31:15.384Z,3.42
2022-12-19T01:33:42.906Z,7.78
2022-12-19T01:36:11.906Z,2.40
2022-12-19T01:38:39.369Z,3.88
2022-12-19T01:41:06.154Z,5.30
2022-12-19T01:43:53.140Z,5.75
2022-12-19T01:46:23.655Z,4.93
2022-12-19T01:48:53.341Z,3.75
2022-12-19T01:51:25.555Z,3.85
2022-12-19T01:54:00.087Z,5.78
2022-12-19T01:56:29.366Z,4.32
2022-12-19T01:59:02.409Z,6.85
2022-12-19T02:01:33.902Z,8.27
2022-12-19T02:04:00.743Z,4.90
2022-12-19T02:06:27.721Z,3.95
2022-12-19T02:08:57.385Z,5.72
2022-12-19T02:11:24.044Z,3.20
2022-12-19T02:13:50.709Z,7.10
2022-12-19T02:16:42.594Z,4.45
2022-12-19T02:19:52.944Z,5.85
2022-12-19T02:22:25.538Z,8.10
2022-12-19T02:25:06.070Z,7.00
2022-12-19T02:27:41.539Z,10.75
2022-12-19T02:30:10.438Z,5.55
2022-12-19T02:32:46.168Z,7.22
2022-12-19T02:35:40.144Z,7.65
2022-12-19T02:38:27.877Z,8.18
2022-12-19T02:41:00.620Z,8.98
2022-12-19T02:43:29.811Z,9.95
2022-12-19T02:45:56.954Z,11.32
2022-12-19T02:48:24.191Z,13.15
2022-12-19T02:50:51.018Z,10.77
2022-12-19T02:53:18.218Z,10.77
2022-12-19T02:56:14.029Z,6.95
2022-12-19T02:58:52.106Z,7.13
2022-12-19T03:01:45.463Z,7.60
2022-12-19T03:04:21.171Z,7.13
2022-12-19T03:06:55.255Z,6.40
2022-12-19T03:09:26.334Z,5.88
2022-12-19T03:12:01.689Z,7.82
2022-12-19T03:14:28.358Z,12.68
2022-12-19T03:16:55.165Z,4.22
2022-12-19T03:19:22.017Z,6.95
2022-12-19T03:21:49.015Z,11.10
2022-12-19T03:24:16.401Z,9.70
2022-12-19T03:26:54.972Z,7.57
2022-12-19T03:29:33.176Z,12.40
2022-12-19T03:32:01.010Z,6.43
2022-12-19T03:34:40.332Z,8.05
2022-12-19T03:37:09.498Z,7.38
2022-12-19T03:39:36.170Z,8.77
2022-12-19T03:42:22.693Z,12.32
2022-12-19T03:44:50.169Z,17.23
2022-12-19T03:47:29.268Z,12.57
2022-12-19T03:49:56.010Z,9.93
2022-12-19T03:52:52.059Z,8.63
2022-12-19T03:55:27.975Z,16.65
2022-12-19T03:58:32.576Z,10.63
2022-12-19T04:01:00.878Z,12.43
2022-12-19T04:03:27.898Z,13.40
2022-12-19T04:05:54.617Z,13.30
2022-12-19T04:08:21.315Z,12.68
2022-12-19T04:10:50.472Z,11.65
2022-12-19T04:13:19.877Z,8.55
2022-12-19T04:15:58.681Z,9.43
2022-12-19T04:18:25.400Z,10.40
2022-12-19T04:20:58.513Z,10.65
2022-12-19T04:23:31.455Z,7.37
2022-12-19T04:26:01.016Z,7.00
2022-12-19T04:28:27.706Z,5.82
2022-12-19T04:30:54.571Z,5.55
2022-12-19T04:33:21.390Z,8.77
2022-12-19T04:35:48.061Z,10.20
2022-12-19T04:38:14.743Z,6.93
2022-12-19T04:40:41.900Z,8.85
2022-12-19T04:43:09.059Z,9.38
2022-12-19T04:45:36.096Z,8.55
2022-12-19T04:48:03.457Z,7.43
2022-12-19T04:50:30.204Z,7.13
2022-12-19T04:52:57.269Z,8.07
2022-12-19T04:55:24.096Z,9.25
2022-12-19T04:57:50.777Z,9.32
2022-12-19T05:00:17.521Z,4.22
2022-12-19T05:02:45.761Z,5.03
2022-12-19T05:05:12.606Z,7.03
2022-12-19T05:07:40.579Z,6.60
2022-12-19T05:10:07.817Z,3.78
2022-12-19T05:12:34.875Z,7.38
2022-12-19T05:15:01.620Z,4.32
2022-12-19T05:17:28.313Z,6.70
2022-12-19T05:19:55.045Z,4.97
2022-12-19T05:22:22.016Z,4.20
2022-12-19T05:24:48.706Z,6.47
2022-12-19T05:27:15.650Z,3.55
2022-12-19T05:29:42.392Z,10.85
2022-12-19T05:32:09.119Z,7.47
2022-12-19T05:34:35.923Z,7.70
2022-12-19T05:37:03.665Z,2.00
2022-12-19T05:39:30.585Z,5.47
2022-12-19T05:41:57.277Z,4.20
2022-12-19T05:44:24.787Z,2.53
2022-12-19T05:46:52.126Z,5.05
2022-12-19T05:49:19.144Z,5.70
2022-12-19T05:51:48.139Z,6.43
2022-12-19T05:54:14.890Z,8.02
2022-12-19T05:56:41.588Z,6.20
2022-12-19T05:59:08.355Z,2.33
2022-12-19T06:01:35.171Z,6.07
2022-12-19T06:04:01.945Z,4.80
2022-12-19T06:06:29.263Z,5.97
2022-12-19T06:08:58.208Z,6.75
2022-12-19T06:11:25.299Z,4.60
2022-12-19T06:13:52.300Z,6.65
2022-12-19T06:16:19.959Z,11.73
2022-12-19T06:18:47.394Z,3.55
2022-12-19T06:21:16.103Z,3.42
2022-12-19T06:23:43.065Z,3.97
2022-12-19T06:26:18.281Z,4.13
2022-12-19T06:28:46.369Z,4.75
2022-12-19T06:31:13.377Z,7.88
2022-12-19T06:33:40.115Z,4.80
2022-12-19T06:36:20.631Z,4.20
2022-12-19T06:38:48.034Z,10.15
2022-12-19T06:41:33.740Z,6.13
2022-12-19T06:44:00.981Z,3.55
2022-12-19T06:46:31.637Z,6.47
2022-12-19T06:48:59.654Z,6.68
2022-12-19T06:51:26.438Z,11.05
2022-12-19T06:53:53.660Z,8.02
2022-12-19T06:56:20.391Z,9.40
2022-12-19T06:58:47.450Z,3.67
2022-12-19T07:01:18.796Z,5.18
2022-12-19T07:03:45.542Z,6.32
2022-12-19T07:06:12.856Z,9.77
2022-12-19T07:08:39.581Z,7.10
2022-12-19T07:11:06.310Z,7.18
2022-12-19T07:13:33.055Z,7.70
2022-12-19T07:16:01.118Z,7.78
2022-12-19T07:18:29.092Z,6.18
2022-12-19T07:20:56.283Z,7.32
2022-12-19T07:23:23.106Z,5.93
2022-12-19T07:25:50.454Z,3.05
2022-12-19T07:28:17.190Z,3.92
2022-12-19T07:30:44.021Z,11.70
2022-12-19T07:33:11.842Z,3.33
2022-12-19T07:35:39.723Z,3.05
2022-12-19T07:38:06.605Z,5.90
2022-12-19T07:40:33.842Z,5.78
2022-12-19T07:43:04.572Z,4.40
2022-12-19T07:45:31.409Z,4.00
2022-12-19T07:48:02.225Z,6.35
2022-12-19T07:50:29.386Z,4.18
2022-12-19T07:52:56.810Z,3.45
2022-12-19T07:55:23.542Z,4.57
2022-12-19T07:57:50.670Z,5.38
2022-12-19T08:00:17.805Z,4.70
2022-12-19T08:02:44.825Z,4.43
2022-12-19T08:05:12.590Z,7.63
2022-12-19T08:07:39.349Z,8.02
2022-12-19T08:10:06.994Z,10.48
2022-12-19T08:12:34.130Z,5.10
2022-12-19T08:15:00.870Z,5.47
2022-12-19T08:17:27.623Z,7.18
2022-12-19T08:19:54.350Z,6.03
2022-12-19T08:22:21.113Z,7.93
2022-12-19T08:24:47.913Z,7.95
2022-12-19T08:27:16.731Z,8.45
2022-12-19T08:29:43.597Z,9.07
2022-12-19T08:32:13.216Z,7.07
2022-12-19T08:34:42.694Z,7.93
2022-12-19T08:37:11.052Z,8.85
2022-12-19T08:39:38.082Z,8.35
2022-12-19T08:42:05.082Z,13.07
2022-12-19T08:44:32.169Z,13.15
2022-12-19T08:46:59.138Z,10.88
2022-12-19T08:49:26.102Z,6.80
2022-12-19T08:51:52.857Z,12.40
2022-12-19T08:54:19.956Z,4.65
2022-12-19T08:56:47.366Z,7.32
2022-12-19T08:59:21.128Z,10.55
2022-12-19T09:01:59.060Z,8.38
2022-12-19T09:05:59.259Z,10.77
2022-12-19T09:07:15.194Z,12.73
2022-12-19T09:09:42.973Z,5.70
2022-12-19T09:12:12.488Z,9.45
2022-12-19T09:14:39.205Z,9.05
2022-12-19T09:17:06.357Z,8.15
2022-12-19T09:19:33.334Z,9.55
2022-12-19T09:22:00.506Z,11.45
2022-12-19T09:24:27.635Z,5.70
2022-12-19T09:26:54.759Z,7.78
2022-12-19T09:29:22.332Z,7.13
2022-12-19T09:31:56.360Z,7.60
2022-12-19T09:34:37.416Z,4.85
2022-12-19T09:37:10.514Z,5.95
2022-12-19T09:39:46.242Z,10.32
2022-12-19T09:42:40.728Z,8.82
2022-12-19T09:45:19.777Z,5.18
2022-12-19T09:47:59.200Z,5.03
2022-12-19T09:50:34.114Z,10.93
2022-12-19T09:53:04.639Z,4.45
2022-12-19T09:55:39.588Z,8.05
2022-12-19T09:58:23.045Z,4.93
2022-12-19T10:00:58.690Z,7.77
2022-12-19T10:03:41.523Z,8.55
2022-12-19T10:07:11.366Z,8.10
2022-12-19T10:11:06.483Z,4.80
2022-12-19T10:12:45.062Z,4.18
2022-12-19T10:15:20.756Z,8.63
2022-12-19T10:17:59.855Z,4.57
2022-12-19T10:20:41.669Z,4.20
2022-12-19T10:23:34.224Z,8.20
2022-12-19T10:26:19.487Z,12.95
2022-12-19T10:29:11.019Z,12.98
2022-12-19T10:32:04.415Z,11.35
2022-12-19T10:34:45.382Z,5.15
2022-12-19T10:37:45.607Z,7.15
2022-12-19T10:40:27.930Z,9.52
2022-12-19T10:43:35.662Z,14.30
2022-12-19T10:46:20.382Z,18.30
2022-12-19T10:48:48.323Z,9.82
2022-12-19T10:51:23.229Z,10.88
2022-12-19T10:53:57.221Z,10.32
2022-12-19T10:56:33.181Z,11.10
2022-12-19T10:59:04.767Z,10.82
2022-12-19T11:01:39.033Z,17.42
2022-12-19T11:04:19.800Z,7.05
2022-12-19T11:06:48.112Z,12.93
2022-12-19T11:09:37.486Z,7.60
2022-12-19T11:16:52.940Z,6.43
2022-12-19T11:20:28.166Z,10.25
2022-12-19T11:25:31.791Z,9.35
2022-12-19T11:29:31.803Z,3.20
2022-12-19T11:29:38.940Z,7.78
2022-12-19T11:29:44.434Z,4.13
2022-12-19T11:32:42.659Z,11.85
2022-12-19T11:35:19.786Z,5.63
2022-12-19T11:38:06.627Z,7.07
2022-12-19T11:40:48.656Z,11.77
2022-12-19T11:43:45.929Z,9.88
2022-12-19T11:46:30.525Z,15.57
2022-12-19T11:49:02.408Z,17.05
2022-12-19T11:51:43.549Z,13.05
2022-12-19T11:54:21.514Z,9.32
2022-12-19T11:56:48.623Z,16.05
2022-12-19T11:59:26.400Z,15.90
2022-12-19T12:02:28.982Z,20.17
2022-12-19T12:05:24.288Z,7.70
2022-12-19T12:08:48.581Z,8.65
2022-12-19T12:17:28.060Z,10.20
2022-12-19T12:25:40.242Z,18.73
2022-12-19T12:30:59.923Z,14.70
2022-12-19T12:31:18.532Z,13.68
2022-12-19T12:31:39.390Z,8.38
2022-12-19T12:31:40.355Z,14.95
2022-12-19T12:31:58.467Z,10.52
2022-12-19T12:35:40.930Z,12.52
2022-12-19T12:38:47.392Z,9.27
2022-12-19T12:41:47.914Z,8.27
2022-12-19T12:44:22.633Z,15.07
2022-12-19T12:47:02.900Z,9.35
2022-12-19T12:49:40.859Z,11.70
2022-12-19T12:52:09.717Z,17.00
2022-12-19T12:54:41.664Z,13.02
2022-12-19T12:57:25.192Z,7.35
2022-12-19T13:00:36.610Z,13.05
2022-12-19T13:03:10.515Z,7.60
2022-12-19T13:08:26.090Z,16.45
2022-12-19T13:10:57.280Z,10.15
2022-12-19T13:13:59.609Z,9.82
2022-12-19T13:16:44.791Z,17.90
2022-12-19T13:19:21.074Z,10.00
2022-12-19T13:22:09.567Z,13.57
2022-12-19T13:24:50.732Z,13.95
2022-12-19T13:27:26.759Z,10.40
2022-12-19T13:29:56.848Z,9.90
2022-12-19T13:32:24.088Z,9.55
2022-12-19T13:35:04.764Z,17.90
2022-12-19T13:40:34.512Z,14.45
2022-12-19T13:43:25.963Z,16.05
2022-12-19T13:46:37.966Z,9.20
2022-12-19T13:49:14.229Z,11.90
2022-12-19T13:51:55.213Z,16.27
2022-12-19T13:54:26.371Z,16.40
2022-12-19T13:56:53.647Z,9.68
2022-12-19T13:59:22.174Z,7.95
2022-12-19T14:01:49.089Z,9.32
2022-12-19T14:04:26.568Z,9.18
2022-12-19T14:07:05.074Z,17.33
2022-12-19T14:11:27.404Z,8.13
2022-12-19T14:13:43.225Z,9.80
2022-12-19T14:15:39.973Z,15.65
2022-12-19T14:18:42.309Z,12.13
2022-12-19T14:22:06.736Z,9.68
2022-12-19T14:24:22.829Z,11.98
2022-12-19T14:28:21.197Z,14.60
2022-12-19T14:30:27.367Z,7.15
2022-12-19T14:33:40.561Z,4.82
2022-12-19T14:36:08.398Z,14.55
2022-12-19T14:39:20.085Z,8.27
2022-12-19T14:41:07.787Z,18.67
2022-12-19T14:43:56.775Z,14.68
2022-12-19T14:54:03.654Z,9.57
2022-12-19T14:54:24.629Z,10.18
2022-12-19T14:56:15.980Z,12.47
2022-12-19T14:58:54.513Z,12.88
2022-12-19T15:01:36.591Z,18.27
2022-12-19T15:04:53.320Z,11.38
2022-12-19T15:07:08.176Z,12.77
2022-12-19T15:11:06.968Z,8.57
2022-12-19T15:14:46.784Z,14.75
2022-12-19T15:15:58.865Z,13.00
2022-12-19T15:18:39.511Z,12.32
2022-12-19T15:21:16.061Z,9.02
2022-12-19T15:23:44.216Z,13.10
2022-12-19T15:26:29.545Z,18.15
2022-12-19T15:28:56.891Z,15.45
2022-12-19T15:31:34.879Z,9.35
2022-12-19T15:34:35.861Z,12.00
2022-12-19T15:37:04.126Z,6.57
2022-12-19T15:39:30.961Z,9.98
2022-12-19T15:41:59.359Z,8.32
2022-12-19T15:44:36.958Z,12.13
2022-12-19T15:47:05.907Z,7.25
2022-12-19T15:49:35.217Z,5.65
2022-12-19T15:52:02.787Z,22.50
2022-12-19T15:54:48.667Z,11.23
2022-12-19T15:57:39.587Z,11.60
2022-12-19T16:00:08.152Z,15.77
2022-12-19T16:03:13.357Z,6.43
2022-12-19T16:05:23.117Z,13.65
2022-12-19T16:07:50.142Z,7.65
2022-12-19T16:10:17.021Z,14.82
2022-12-19T16:12:45.896Z,13.27
2022-12-19T16:15:19.962Z,22.83
2022-12-19T16:17:46.892Z,13.70
2022-12-19T16:20:18.172Z,21.30
2022-12-19T16:22:45.318Z,24.33
2022-12-19T16:25:12.805Z,14.63
2022-12-19T16:27:39.615Z,20.48
2022-12-19T16:30:21.091Z,15.07
2022-12-19T16:32:48.962Z,13.80
2022-12-19T16:35:34.305Z,13.43
2022-12-19T16:38:07.075Z,15.98
2022-12-19T16:40:34.153Z,16.52
2022-12-19T16:43:05.832Z,18.17
2022-12-19T16:45:33.214Z,17.00
2022-12-19T16:48:00.114Z,16.65
2022-12-19T16:50:29.084Z,24.58
2022-12-19T16:52:55.913Z,18.50
2022-12-19T16:55:24.079Z,20.15
2022-12-19T16:57:52.249Z,16.05
2022-12-19T17:00:20.123Z,16.85
2022-12-19T17:02:51.595Z,23.63
2022-12-19T17:05:26.495Z,29.08
2022-12-19T17:07:54.360Z,22.85
2022-12-19T17:10:26.117Z,26.23
2022-12-19T17:12:53.391Z,23.02
2022-12-19T17:15:35.389Z,26.45
2022-12-19T17:18:03.452Z,14.30
2022-12-19T17:20:37.402Z,25.63
2022-12-19T17:25:37.025Z,18.20
2022-12-19T17:28:03.810Z,28.10
2022-12-19T17:30:30.598Z,24.65
2022-12-19T17:33:01.596Z,24.33
2022-12-19T17:35:29.054Z,19.65
2022-12-19T17:37:56.505Z,29.75
2022-12-19T17:40:25.962Z,18.60
2022-12-19T17:42:53.144Z,15.55
2022-12-19T17:45:21.640Z,11.65
2022-12-19T17:47:49.027Z,21.50
2022-12-19T17:50:21.652Z,22.75
2022-12-19T17:52:49.921Z,18.88
2022-12-19T17:55:24.125Z,18.52
2022-12-19T17:57:51.377Z,12.82
2022-12-19T18:00:19.625Z,21.50
2022-12-19T18:02:50.484Z,14.45
2022-12-19T18:05:29.224Z,20.98
2022-12-19T18:07:56.266Z,12.38
2022-12-19T18:10:24.607Z,10.77
2022-12-19T18:12:51.520Z,23.33
2022-12-19T18:15:18.639Z,16.92
2022-12-19T18:17:46.746Z,17.70
2022-12-19T18:20:20.748Z,18.33
2022-12-19T18:22:49.692Z,22.40
2022-12-19T18:25:18.631Z,22.27
2022-12-19T18:27:46.077Z,23.88
2022-12-19T18:30:16.063Z,20.27
2022-12-19T18:32:55.272Z,20.35
2022-12-19T18:35:40.149Z,28.73
2022-12-19T18:38:26.253Z,16.35
2022-12-19T18:40:53.612Z,15.40
2022-12-19T18:43:24.436Z,19.13
2022-12-19T18:45:52.248Z,12.02
2022-12-19T18:48:29.223Z,13.02
2022-12-19T18:50:56.665Z,18.85
2022-12-19T18:53:35.286Z,26.10
2022-12-19T18:56:03.512Z,23.15
2022-12-19T18:58:30.454Z,22.27
2022-12-19T19:00:59.544Z,16.33
2022-12-19T19:03:31.828Z,21.50
2022-12-19T19:05:59.164Z,18.02
2022-12-19T19:08:27.947Z,19.00
2022-12-19T19:10:55.073Z,23.10
2022-12-19T19:13:22.756Z,25.35
2022-12-19T19:15:51.690Z,22.88
2022-12-19T19:18:24.707Z,25.05
2022-12-19T19:20:57.158Z,17.27
2022-12-19T19:23:28.861Z,30.40
2022-12-19T19:25:55.734Z,19.02
2022-12-19T19:28:22.612Z,21.17
2022-12-19T19:30:49.972Z,25.65
2022-12-19T19:33:28.779Z,25.15
2022-12-19T19:36:06.009Z,24.58
2022-12-19T19:38:40.308Z,19.08
2022-12-19T19:41:07.362Z,18.98
2022-12-19T19:43:37.318Z,32.72
2022-12-19T19:46:07.635Z,18.23
2022-12-19T19:48:38.031Z,24.15
2022-12-19T19:51:29.265Z,24.90
2022-12-19T19:53:57.984Z,20.45
2022-12-19T19:56:24.717Z,20.80
2022-12-19T19:58:52.327Z,15.85
2022-12-19T20:01:19.369Z,19.02
2022-12-19T20:03:46.755Z,17.38
2022-12-19T20:06:14.587Z,19.50
2022-12-19T20:08:47.857Z,22.85
2022-12-19T20:11:14.800Z,19.15
2022-12-19T20:13:41.596Z,20.13
2022-12-19T20:16:16.212Z,20.58
2022-12-19T20:18:46.037Z,26.52
2022-12-19T20:21:13.883Z,15.90
2022-12-19T20:23:41.590Z,19.45
2022-12-19T20:26:08.635Z,13.13
2022-12-19T20:28:36.009Z,19.25
2022-12-19T20:31:02.974Z,23.65
2022-12-19T20:33:29.922Z,20.13
2022-12-19T20:35:57.993Z,14.70
2022-12-19T20:38:24.942Z,24.42
2022-12-19T20:40:53.084Z,15.57
2022-12-19T20:43:19.877Z,17.98
2022-12-19T20:45:46.704Z,25.85
2022-12-19T20:48:13.494Z,14.18
2022-12-19T20:50:43.120Z,23.75
2022-12-19T20:53:10.423Z,23.88
2022-12-19T20:55:37.504Z,22.20
2022-12-19T20:58:04.376Z,17.42
2022-12-19T21:00:31.153Z,27.42
2022-12-19T21:05:53.568Z,20.75
2022-12-19T21:10:49.760Z,24.70
2022-12-19T21:13:16.726Z,11.68
2022-12-19T21:15:43.469Z,21.55
2022-12-19T21:18:10.589Z,17.80
2022-12-19T21:20:38.074Z,14.40
2022-12-19T21:23:05.121Z,17.98
2022-12-19T21:25:31.926Z,20.40
2022-12-19T21:27:58.696Z,17.40
2022-12-19T21:30:25.596Z,18.85
2022-12-19T21:32:52.662Z,17.20
2022-12-19T21:35:19.458Z,12.20
2022-12-19T21:37:50.066Z,19.45
2022-12-19T21:40:20.469Z,16.83
2022-12-19T21:42:47.350Z,11.10
2022-12-19T21:45:14.472Z,21.25
2022-12-19T21:47:42.179Z,13.98
2022-12-19T21:50:10.062Z,18.63
2022-12-19T21:52:37.423Z,12.60
2022-12-19T21:55:05.263Z,15.07
2022-12-19T21:57:32.037Z,15.07
2022-12-19T21:59:58.754Z,8.13
2022-12-19T22:02:25.643Z,14.20
2022-12-19T22:04:52.557Z,10.40
2022-12-19T22:07:19.295Z,8.02
2022-12-19T22:09:46.051Z,16.38
2022-12-19T22:12:12.910Z,16.77
2022-12-19T22:14:39.696Z,12.27
2022-12-19T22:17:06.425Z,14.60
2022-12-19T22:19:33.431Z,14.80
2022-12-19T22:22:00.211Z,16.48
2022-12-19T22:24:26.931Z,14.40
2022-12-19T22:26:53.709Z,16.13
2022-12-19T22:29:20.690Z,8.80
2022-12-19T22:31:47.611Z,11.07
2022-12-19T22:34:16.828Z,13.95
2022-12-19T22:36:44.297Z,22.35
2022-12-19T22:39:12.982Z,16.90
2022-12-19T22:41:39.866Z,12.95
2022-12-19T22:44:06.800Z,13.98
2022-12-19T22:46:35.575Z,10.93
2022-12-19T22:49:04.142Z,14.07
2022-12-19T22:51:31.730Z,11.40
2022-12-19T22:53:58.741Z,12.70
2022-12-19T22:56:28.583Z,12.30
2022-12-19T22:58:56.652Z,15.52
2022-12-19T23:01:31.600Z,12.57
2022-12-19T23:03:59.608Z,19.38
2022-12-19T23:06:27.637Z,11.13
2022-12-19T23:08:54.452Z,11.88
2022-12-19T23:11:23.415Z,27.55
2022-12-19T23:13:50.700Z,18.05
2022-12-19T23:16:17.981Z,12.25
2022-12-19T23:18:44.783Z,16.45
2022-12-19T23:21:13.937Z,11.15
2022-12-19T23:23:42.583Z,12.73
2022-12-19T23:26:15.567Z,15.57
2022-12-19T23:28:43.916Z,9.50
2022-12-19T23:31:12.511Z,16.25
2022-12-19T23:33:39.412Z,16.23
2022-12-19T23:36:06.811Z,15.02
2022-12-19T23:38:33.669Z,13.55
2022-12-19T23:41:01.436Z,13.90
2022-12-19T23:43:28.676Z,13.85
2022-12-19T23:45:55.597Z,14.65
2022-12-19T23:48:26.132Z,12.15
2022-12-19T23:51:06.395Z,15.70
2022-12-19T23:53:33.460Z,12.77
2022-12-19T23:56:00.557Z,11.55
2022-12-19T23:58:27.321Z,11.95
